createdAt,value
2022-11-30T00:01:22.004Z,16.00
2022-11-30T00:03:52.868Z,15.40
2022-11-30T00:06:23.421Z,15.77
2022-11-30T00:08:56.931Z,16.55
2022-11-30T00:11:26.088Z,16.67
2022-11-30T00:13:53.315Z,16.58
2022-11-30T00:16:20.809Z,17.33
2022-11-30T00:18:47.914Z,13.98
2022-11-30T00:21:15.167Z,13.75
2022-11-30T00:23:44.295Z,14.25
2022-11-30T00:26:16.726Z,16.80
2022-11-30T00:28:45.840Z,17.23
2022-11-30T00:31:15.856Z,16.63
2022-11-30T00:33:43.509Z,15.73
2022-11-30T00:36:16.587Z,14.95
2022-11-30T00:38:43.999Z,15.48
2022-11-30T00:41:11.550Z,16.58
2022-11-30T00:43:39.129Z,17.55
2022-11-30T00:46:06.756Z,16.48
2022-11-30T00:48:34.049Z,15.77
2022-11-30T00:51:01.198Z,15.73
2022-11-30T00:53:28.256Z,15.48
2022-11-30T00:55:55.523Z,15.15
2022-11-30T00:58:22.690Z,16.25
2022-11-30T01:00:49.806Z,15.52
2022-11-30T01:03:16.945Z,14.90
2022-11-30T01:05:44.019Z,13.10
2022-11-30T01:08:13.023Z,9.82
2022-11-30T01:10:41.906Z,9.25
2022-11-30T01:13:09.462Z,12.55
2022-11-30T01:15:43.760Z,14.63
2022-11-30T01:18:11.068Z,15.43
2022-11-30T01:20:42.715Z,15.50
2022-11-30T01:23:10.359Z,15.45
2022-11-30T01:25:37.650Z,15.30
2022-11-30T01:28:04.820Z,14.57
2022-11-30T01:30:31.944Z,14.93
2022-11-30T01:33:03.491Z,15.50
2022-11-30T01:35:30.644Z,14.13
2022-11-30T01:37:57.648Z,14.70
2022-11-30T01:40:24.640Z,13.23
2022-11-30T01:42:51.730Z,13.93
2022-11-30T01:45:18.728Z,11.60
2022-11-30T01:47:51.164Z,11.27
2022-11-30T01:50:23.761Z,11.07
2022-11-30T01:52:57.267Z,13.38
2022-11-30T01:55:36.315Z,14.55
2022-11-30T01:58:30.057Z,15.18
2022-11-30T02:00:57.130Z,14.07
2022-11-30T02:03:57.100Z,12.27
2022-11-30T02:06:25.583Z,10.27
2022-11-30T02:08:54.125Z,14.63
2022-11-30T02:11:22.266Z,11.23
2022-11-30T02:14:17.562Z,8.20
2022-11-30T02:17:15.704Z,9.18
2022-11-30T02:19:46.168Z,9.70
2022-11-30T02:22:31.261Z,10.27
2022-11-30T02:25:16.372Z,10.90
2022-11-30T02:28:21.099Z,11.65
2022-11-30T02:30:52.211Z,11.45
2022-11-30T02:33:24.476Z,11.52
2022-11-30T02:35:55.549Z,11.60
2022-11-30T02:38:24.605Z,10.90
2022-11-30T02:40:51.622Z,11.93
2022-11-30T02:43:21.613Z,10.45
2022-11-30T02:46:19.978Z,10.45
2022-11-30T02:48:59.367Z,10.32
2022-11-30T02:51:29.934Z,12.38
2022-11-30T02:53:57.082Z,11.30
2022-11-30T02:56:25.038Z,14.00
2022-11-30T02:58:52.664Z,13.68
2022-11-30T03:01:19.723Z,17.23
2022-11-30T03:03:46.805Z,16.75
2022-11-30T03:06:13.815Z,16.42
2022-11-30T03:08:40.814Z,16.95
2022-11-30T03:11:07.880Z,17.08
2022-11-30T03:13:35.087Z,15.57
2022-11-30T03:16:13.220Z,14.07
2022-11-30T03:18:41.060Z,10.82
2022-11-30T03:21:10.262Z,10.10
2022-11-30T03:23:38.321Z,9.68
2022-11-30T03:26:06.871Z,9.98
2022-11-30T03:28:34.531Z,9.80
2022-11-30T03:31:01.658Z,11.75
2022-11-30T03:33:28.739Z,12.25
2022-11-30T03:36:22.067Z,12.85
2022-11-30T03:41:17.789Z,13.00
2022-11-30T03:43:45.487Z,12.13
2022-11-30T03:46:13.520Z,13.57
2022-11-30T03:48:43.444Z,13.27
2022-11-30T03:51:11.787Z,12.57
2022-11-30T03:53:39.631Z,13.13
2022-11-30T03:56:09.426Z,11.48
2022-11-30T03:58:36.550Z,11.55
2022-11-30T04:01:06.162Z,10.52
2022-11-30T04:03:33.598Z,10.82
2022-11-30T04:06:01.555Z,11.02
2022-11-30T04:08:29.480Z,10.73
2022-11-30T04:10:58.365Z,10.68
2022-11-30T04:13:27.201Z,10.55
2022-11-30T04:15:55.012Z,10.38
2022-11-30T04:18:23.876Z,11.07
2022-11-30T04:20:52.593Z,11.05
2022-11-30T04:23:20.625Z,10.85
2022-11-30T04:25:48.175Z,10.95
2022-11-30T04:28:16.820Z,10.38
2022-11-30T04:30:44.003Z,12.30
2022-11-30T04:33:11.701Z,11.50
2022-11-30T04:35:45.695Z,10.60
2022-11-30T04:38:12.886Z,10.82
2022-11-30T04:40:41.583Z,11.25
2022-11-30T04:43:08.805Z,11.38
2022-11-30T04:45:35.966Z,10.77
2022-11-30T04:48:04.749Z,10.63
2022-11-30T04:50:32.447Z,10.73
2022-11-30T04:52:59.635Z,10.02
2022-11-30T04:55:26.882Z,10.85
2022-11-30T04:57:54.219Z,8.88
2022-11-30T05:00:21.795Z,10.90
2022-11-30T05:02:52.850Z,8.88
2022-11-30T05:05:20.443Z,9.82
2022-11-30T05:07:54.846Z,11.20
2022-11-30T05:10:22.003Z,11.07
2022-11-30T05:12:50.270Z,10.38
2022-11-30T05:15:17.567Z,10.68
2022-11-30T05:17:44.628Z,11.65
2022-11-30T05:20:11.848Z,10.32
2022-11-30T05:22:39.093Z,10.80
2022-11-30T05:25:06.691Z,10.30
2022-11-30T05:27:33.801Z,8.82
2022-11-30T05:30:00.843Z,9.32
2022-11-30T05:32:27.922Z,13.10
2022-11-30T05:34:55.291Z,8.60
2022-11-30T05:37:22.679Z,7.47
2022-11-30T05:39:49.672Z,8.27
2022-11-30T05:42:16.831Z,8.63
2022-11-30T05:44:43.947Z,8.77
2022-11-30T05:47:11.144Z,8.77
2022-11-30T05:49:38.128Z,9.75
2022-11-30T05:52:05.534Z,8.32
2022-11-30T05:54:34.553Z,10.10
2022-11-30T05:57:01.758Z,10.30
2022-11-30T05:59:28.758Z,10.02
2022-11-30T06:01:55.970Z,11.10
2022-11-30T06:04:23.142Z,11.38
2022-11-30T06:06:52.298Z,11.95
2022-11-30T06:09:19.295Z,10.90
2022-11-30T06:11:46.275Z,10.60
2022-11-30T06:14:13.371Z,11.05
2022-11-30T06:16:40.573Z,10.65
2022-11-30T06:19:07.587Z,11.50
2022-11-30T06:21:34.634Z,13.35
2022-11-30T06:24:01.645Z,11.63
2022-11-30T06:26:28.634Z,11.07
2022-11-30T06:28:55.684Z,11.27
2022-11-30T06:31:22.738Z,11.18
2022-11-30T06:33:49.827Z,10.38
2022-11-30T06:36:22.832Z,11.15
2022-11-30T06:38:50.174Z,9.80
2022-11-30T06:41:17.902Z,10.98
2022-11-30T06:43:44.906Z,11.65
2022-11-30T06:46:12.227Z,11.25
2022-11-30T06:48:39.275Z,11.98
2022-11-30T06:51:07.982Z,12.05
2022-11-30T06:53:35.228Z,11.13
2022-11-30T06:56:09.918Z,10.02
2022-11-30T06:58:38.706Z,10.50
2022-11-30T07:01:08.349Z,10.30
2022-11-30T07:03:35.715Z,10.35
2022-11-30T07:06:07.084Z,12.23
2022-11-30T07:08:34.091Z,12.30
2022-11-30T07:11:01.157Z,12.60
2022-11-30T07:13:28.264Z,11.27
2022-11-30T07:15:55.259Z,10.27
2022-11-30T07:18:24.761Z,11.40
2022-11-30T07:21:00.412Z,11.45
2022-11-30T07:23:50.775Z,12.68
2022-11-30T07:26:22.254Z,16.27
2022-11-30T07:28:55.219Z,13.95
2022-11-30T07:31:26.754Z,14.88
2022-11-30T07:33:54.524Z,14.88
2022-11-30T07:36:23.668Z,16.95
2022-11-30T07:38:50.888Z,16.35
2022-11-30T07:41:18.215Z,14.27
2022-11-30T07:43:45.240Z,12.93
2022-11-30T07:46:14.456Z,13.00
2022-11-30T07:48:42.874Z,14.05
2022-11-30T07:51:15.742Z,13.65
2022-11-30T07:56:12.015Z,14.07
2022-11-30T07:58:39.292Z,14.00
2022-11-30T08:01:11.975Z,15.85
2022-11-30T08:03:39.613Z,19.00
2022-11-30T08:06:12.506Z,16.48
2022-11-30T08:08:41.913Z,15.55
2022-11-30T08:11:10.803Z,16.15
2022-11-30T08:13:37.997Z,21.33
2022-11-30T08:16:16.765Z,18.48
2022-11-30T08:18:44.020Z,17.95
2022-11-30T08:21:13.470Z,15.93
2022-11-30T08:23:46.149Z,15.90
2022-11-30T08:26:30.199Z,16.10
2022-11-30T08:28:58.852Z,19.38
2022-11-30T08:31:30.206Z,64.30
2022-11-30T08:34:02.091Z,48.97
2022-11-30T08:36:30.829Z,107.30
2022-11-30T08:38:59.253Z,26.65
2022-11-30T08:41:26.895Z,20.50
2022-11-30T08:43:54.334Z,21.80
2022-11-30T08:49:25.780Z,17.83
2022-11-30T08:54:47.449Z,16.60
2022-11-30T08:57:20.635Z,16.08
2022-11-30T08:59:48.072Z,14.60
2022-11-30T09:02:20.005Z,14.23
2022-11-30T09:04:49.409Z,15.97
2022-11-30T09:07:16.821Z,15.85
2022-11-30T09:09:43.773Z,14.80
2022-11-30T09:12:10.716Z,15.15
2022-11-30T09:14:37.799Z,14.90
2022-11-30T09:17:05.239Z,14.45
2022-11-30T09:19:32.280Z,14.00
2022-11-30T09:21:59.281Z,14.18
2022-11-30T09:24:26.203Z,13.75
2022-11-30T09:26:56.950Z,14.63
2022-11-30T09:29:24.170Z,13.95
2022-11-30T09:31:51.164Z,14.75
2022-11-30T09:34:18.125Z,14.00
2022-11-30T09:36:45.297Z,14.02
2022-11-30T09:39:13.077Z,13.57
2022-11-30T09:42:02.097Z,14.98
2022-11-30T09:44:29.023Z,15.05
2022-11-30T09:47:36.187Z,14.15
2022-11-30T09:50:25.715Z,12.48
2022-11-30T09:52:57.097Z,13.77
2022-11-30T09:55:39.376Z,13.57
2022-11-30T09:58:07.438Z,13.20
2022-11-30T10:00:35.256Z,14.00
2022-11-30T10:03:06.073Z,14.18
2022-11-30T10:05:39.067Z,12.93
2022-11-30T10:11:10.538Z,14.27
2022-11-30T10:13:56.091Z,13.88
2022-11-30T10:16:44.212Z,15.10
2022-11-30T10:19:35.355Z,14.35
2022-11-30T10:22:08.112Z,13.40
2022-11-30T10:24:35.023Z,12.77
2022-11-30T10:27:16.836Z,11.95
2022-11-30T10:29:44.325Z,12.20
2022-11-30T10:32:19.494Z,12.40
2022-11-30T10:34:55.162Z,12.30
2022-11-30T10:37:26.893Z,11.40
2022-11-30T10:40:12.264Z,13.25
2022-11-30T10:42:50.205Z,10.90
2022-11-30T10:45:25.749Z,10.32
2022-11-30T10:48:31.352Z,10.35
2022-11-30T10:51:00.595Z,10.98
2022-11-30T10:53:27.642Z,8.52
2022-11-30T10:56:07.845Z,8.65
2022-11-30T10:58:48.488Z,9.45
2022-11-30T11:01:32.586Z,9.43
2022-11-30T11:04:15.438Z,8.07
2022-11-30T11:06:56.771Z,8.73
2022-11-30T11:09:47.182Z,8.82
2022-11-30T11:12:28.843Z,8.05
2022-11-30T11:15:33.538Z,8.57
2022-11-30T11:18:26.200Z,8.77
2022-11-30T11:21:21.415Z,9.65
2022-11-30T11:23:53.066Z,8.75
2022-11-30T11:26:21.487Z,9.02
2022-11-30T11:28:51.333Z,8.95
2022-11-30T11:31:38.777Z,9.65
2022-11-30T11:34:23.033Z,8.25
2022-11-30T11:37:22.836Z,8.85
2022-11-30T11:39:57.043Z,8.50
2022-11-30T11:42:26.216Z,7.72
2022-11-30T11:44:56.773Z,8.18
2022-11-30T11:47:26.427Z,7.97
2022-11-30T11:50:27.198Z,7.97
2022-11-30T11:53:10.443Z,7.43
2022-11-30T11:55:38.772Z,7.13
2022-11-30T11:58:06.564Z,6.70
2022-11-30T12:00:34.055Z,6.43
2022-11-30T12:03:19.664Z,5.88
2022-11-30T12:05:51.763Z,6.32
2022-11-30T12:08:54.478Z,6.00
2022-11-30T12:11:46.993Z,5.90
2022-11-30T12:14:18.999Z,5.50
2022-11-30T12:17:05.396Z,5.10
2022-11-30T12:19:57.344Z,5.22
2022-11-30T12:22:33.055Z,4.68
2022-11-30T12:25:06.375Z,4.50
2022-11-30T12:27:54.192Z,4.38
2022-11-30T12:31:00.672Z,4.10
2022-11-30T12:33:30.805Z,4.35
2022-11-30T12:36:16.939Z,4.30
2022-11-30T12:38:59.464Z,4.15
2022-11-30T12:41:39.775Z,3.67
2022-11-30T12:44:19.293Z,3.47
2022-11-30T12:46:55.440Z,4.13
2022-11-30T12:49:32.256Z,3.38
2022-11-30T12:52:34.320Z,3.85
2022-11-30T12:55:28.873Z,4.03
2022-11-30T12:58:20.705Z,3.40
2022-11-30T13:01:18.790Z,6.38
2022-11-30T13:03:54.214Z,6.10
2022-11-30T13:06:31.654Z,6.47
2022-11-30T13:09:04.757Z,3.58
2022-11-30T13:11:38.854Z,3.47
2022-11-30T13:14:18.269Z,4.13
2022-11-30T13:16:47.183Z,3.30
2022-11-30T13:19:17.271Z,3.78
2022-11-30T13:21:58.007Z,3.47
2022-11-30T13:24:37.472Z,3.80
2022-11-30T13:27:21.182Z,3.30
2022-11-30T13:30:04.118Z,3.92
2022-11-30T13:32:57.253Z,3.28
2022-11-30T13:35:30.716Z,4.60
2022-11-30T13:41:06.102Z,10.40
2022-11-30T13:43:47.864Z,5.47
2022-11-30T13:46:23.772Z,8.35
2022-11-30T13:49:21.275Z,9.57
2022-11-30T13:52:13.259Z,4.30
2022-11-30T13:54:47.001Z,6.32
2022-11-30T13:57:29.737Z,6.65
2022-11-30T13:59:58.996Z,3.97
2022-11-30T14:02:42.034Z,3.20
2022-11-30T14:07:59.447Z,3.65
2022-11-30T14:10:29.560Z,5.00
2022-11-30T14:13:02.316Z,4.60
2022-11-30T14:15:31.868Z,4.50
2022-11-30T14:17:59.199Z,3.72
2022-11-30T14:20:37.503Z,3.40
2022-11-30T14:23:19.057Z,3.85
2022-11-30T14:25:51.923Z,4.20
2022-11-30T14:30:49.606Z,4.47
2022-11-30T14:33:22.693Z,4.47
2022-11-30T14:35:55.516Z,5.43
2022-11-30T14:40:55.115Z,5.40
2022-11-30T14:43:22.173Z,5.60
2022-11-30T14:46:05.083Z,4.50
2022-11-30T14:48:33.841Z,4.97
2022-11-30T14:51:03.925Z,6.65
2022-11-30T14:53:56.438Z,5.32
2022-11-30T14:56:31.890Z,5.33
2022-11-30T14:59:42.218Z,5.88
2022-11-30T15:02:22.835Z,7.28
2022-11-30T15:04:52.694Z,8.13
2022-11-30T15:07:20.255Z,7.85
2022-11-30T15:09:50.272Z,8.63
2022-11-30T15:12:23.693Z,9.43
2022-11-30T15:15:17.076Z,8.65
2022-11-30T15:20:42.195Z,9.15
2022-11-30T15:23:16.084Z,10.18
2022-11-30T15:25:48.677Z,9.20
2022-11-30T15:28:21.801Z,9.57
2022-11-30T15:30:53.908Z,9.40
2022-11-30T15:33:23.669Z,10.00
2022-11-30T15:38:42.021Z,9.88
2022-11-30T15:41:22.436Z,10.23
2022-11-30T15:43:52.562Z,9.90
2022-11-30T15:46:56.358Z,10.20
2022-11-30T15:49:26.335Z,9.90
2022-11-30T15:52:11.505Z,10.02
2022-11-30T15:54:49.129Z,9.85
2022-11-30T16:04:58.327Z,11.02
2022-11-30T16:10:07.130Z,11.20
2022-11-30T16:12:34.143Z,10.20
2022-11-30T16:15:16.516Z,10.13
2022-11-30T16:17:43.501Z,9.77
2022-11-30T16:20:16.651Z,9.88
2022-11-30T16:22:48.117Z,10.85
2022-11-30T16:25:19.609Z,9.73
2022-11-30T16:27:49.515Z,9.23
2022-11-30T16:30:24.267Z,9.45
2022-11-30T16:32:51.685Z,9.38
2022-11-30T16:35:28.372Z,9.25
2022-11-30T16:38:00.272Z,8.52
2022-11-30T16:40:27.215Z,7.97
2022-11-30T16:42:54.665Z,8.45
2022-11-30T16:45:24.035Z,7.18
2022-11-30T16:47:51.934Z,7.30
2022-11-30T16:50:20.162Z,6.60
2022-11-30T16:52:47.090Z,6.60
2022-11-30T16:55:22.070Z,6.60
2022-11-30T16:57:49.800Z,6.70
2022-11-30T17:00:19.080Z,5.90
2022-11-30T17:02:52.789Z,6.07
2022-11-30T17:05:19.996Z,6.65
2022-11-30T17:07:47.390Z,5.63
2022-11-30T17:10:15.907Z,6.50
2022-11-30T17:12:43.261Z,8.57
2022-11-30T17:15:16.451Z,6.18
2022-11-30T17:17:44.145Z,5.90
2022-11-30T17:20:13.240Z,6.63
2022-11-30T17:22:40.652Z,4.68
2022-11-30T17:25:11.872Z,4.63
2022-11-30T17:27:38.768Z,3.85
2022-11-30T17:30:06.573Z,3.45
2022-11-30T17:32:34.424Z,4.00
2022-11-30T17:35:01.681Z,4.15
2022-11-30T17:37:28.751Z,5.20
2022-11-30T17:39:57.334Z,3.90
2022-11-30T17:42:24.347Z,5.10
2022-11-30T17:44:51.528Z,3.20
2022-11-30T17:47:18.689Z,4.03
2022-11-30T17:49:45.900Z,3.63
2022-11-30T17:52:14.400Z,4.28
2022-11-30T17:54:41.356Z,4.82
2022-11-30T17:57:08.447Z,4.68
2022-11-30T17:59:35.302Z,4.82
2022-11-30T18:02:02.335Z,2.50
2022-11-30T18:04:29.330Z,3.65
2022-11-30T18:06:56.393Z,4.43
2022-11-30T18:09:24.352Z,3.50
2022-11-30T18:11:51.428Z,3.75
2022-11-30T18:14:18.294Z,2.58
2022-11-30T18:16:45.262Z,2.80
2022-11-30T18:19:20.940Z,4.30
2022-11-30T18:21:50.008Z,2.70
2022-11-30T18:24:19.980Z,2.60
2022-11-30T18:26:50.754Z,3.45
2022-11-30T18:29:17.969Z,4.00
2022-11-30T18:31:45.454Z,2.63
2022-11-30T18:34:12.439Z,3.17
2022-11-30T18:36:39.619Z,2.70
2022-11-30T18:39:06.481Z,3.53
2022-11-30T18:41:33.319Z,3.22
2022-11-30T18:44:00.217Z,2.85
2022-11-30T18:46:27.745Z,2.95
2022-11-30T18:48:55.426Z,3.13
2022-11-30T18:51:27.675Z,3.15
2022-11-30T18:53:57.989Z,3.80
2022-11-30T18:56:26.905Z,6.00
2022-11-30T18:59:03.484Z,3.70
2022-11-30T19:01:31.409Z,3.15
2022-11-30T19:04:01.261Z,3.30
2022-11-30T19:06:30.230Z,3.78
2022-11-30T19:08:57.632Z,3.60
2022-11-30T19:11:24.833Z,3.70
2022-11-30T19:13:56.939Z,3.63
2022-11-30T19:16:25.354Z,3.83
2022-11-30T19:18:53.293Z,3.60
2022-11-30T19:21:21.913Z,3.83
2022-11-30T19:23:49.444Z,3.40
2022-11-30T19:26:16.614Z,5.20
2022-11-30T19:28:44.517Z,4.55
2022-11-30T19:31:17.103Z,4.20
2022-11-30T19:33:47.107Z,4.72
2022-11-30T19:36:20.444Z,4.35
2022-11-30T19:38:47.901Z,4.65
2022-11-30T19:41:16.056Z,4.45
2022-11-30T19:43:47.877Z,4.65
2022-11-30T19:46:18.425Z,5.65
2022-11-30T19:48:45.351Z,5.55
2022-11-30T19:51:17.978Z,6.97
2022-11-30T19:53:45.722Z,5.20
2022-11-30T19:56:17.666Z,5.93
2022-11-30T19:58:46.206Z,6.28
2022-11-30T20:01:14.450Z,6.70
2022-11-30T20:03:41.907Z,7.43
2022-11-30T20:06:08.971Z,6.10
2022-11-30T20:08:38.484Z,6.65
2022-11-30T20:11:13.612Z,6.47
2022-11-30T20:13:40.985Z,6.65
2022-11-30T20:16:13.808Z,6.22
2022-11-30T20:21:14.004Z,9.82
2022-11-30T20:24:00.640Z,8.65
2022-11-30T20:27:30.993Z,11.57
2022-11-30T20:30:16.766Z,9.57
2022-11-30T20:32:53.571Z,13.57
2022-11-30T20:35:29.083Z,15.15
2022-11-30T20:38:16.055Z,11.00
2022-11-30T20:40:54.731Z,9.32
2022-11-30T20:43:40.577Z,7.80
2022-11-30T20:46:42.638Z,8.55
2022-11-30T20:49:59.117Z,6.63
2022-11-30T20:52:42.516Z,5.72
2022-11-30T20:55:16.937Z,6.22
2022-11-30T20:58:07.376Z,5.82
2022-11-30T21:00:47.476Z,7.00
2022-11-30T21:03:40.735Z,7.90
2022-11-30T21:06:11.020Z,7.38
2022-11-30T21:08:47.589Z,9.40
2022-11-30T21:11:25.355Z,9.40
2022-11-30T21:13:54.279Z,10.65
2022-11-30T21:16:28.332Z,10.80
2022-11-30T21:19:14.258Z,7.20
2022-11-30T21:21:53.283Z,5.82
2022-11-30T21:24:25.443Z,6.43
2022-11-30T21:27:07.387Z,5.90
2022-11-30T21:29:39.696Z,5.88
2022-11-30T21:32:10.783Z,5.25
2022-11-30T21:34:40.018Z,4.70
2022-11-30T21:37:28.741Z,6.43
2022-11-30T21:40:13.754Z,9.65
2022-11-30T21:42:48.659Z,7.80
2022-11-30T21:45:21.562Z,14.05
2022-11-30T21:47:54.856Z,8.80
2022-11-30T21:50:31.626Z,7.93
2022-11-30T21:53:06.454Z,12.40
2022-11-30T21:55:41.489Z,7.70
2022-11-30T21:58:09.711Z,6.72
2022-11-30T22:00:40.754Z,8.50
2022-11-30T22:03:19.436Z,8.10
2022-11-30T22:06:04.179Z,7.90
2022-11-30T22:08:41.165Z,8.20
2022-11-30T22:11:20.042Z,6.63
2022-11-30T22:13:53.993Z,6.18
2022-11-30T22:16:24.682Z,10.63
2022-11-30T22:18:59.358Z,8.20
2022-11-30T22:21:49.813Z,6.82
2022-11-30T22:24:20.447Z,8.10
2022-11-30T22:26:54.438Z,8.30
2022-11-30T22:29:31.768Z,6.85
2022-11-30T22:32:26.641Z,8.48
2022-11-30T22:34:55.314Z,8.25
2022-11-30T22:37:28.441Z,6.50
2022-11-30T22:39:55.644Z,8.35
2022-11-30T22:42:22.596Z,6.10
2022-11-30T22:44:49.566Z,6.68
2022-11-30T22:47:17.723Z,7.05
2022-11-30T22:49:44.852Z,7.85
2022-11-30T22:52:11.904Z,7.00
2022-11-30T22:54:38.900Z,7.68
2022-11-30T22:57:05.911Z,9.43
2022-11-30T22:59:32.915Z,8.25
2022-11-30T23:02:00.329Z,7.53
2022-11-30T23:04:27.365Z,7.35
2022-11-30T23:06:54.804Z,6.18
2022-11-30T23:09:23.566Z,5.97
2022-11-30T23:11:51.619Z,5.38
2022-11-30T23:14:19.077Z,5.18
2022-11-30T23:16:46.255Z,5.90
2022-11-30T23:19:14.385Z,5.45
2022-11-30T23:21:44.988Z,6.38
2022-11-30T23:24:23.930Z,7.43
2022-11-30T23:26:51.006Z,5.53
2022-11-30T23:29:18.475Z,5.97
2022-11-30T23:31:46.537Z,8.23
2022-11-30T23:34:17.267Z,7.38
2022-11-30T23:36:44.582Z,7.38
2022-11-30T23:39:14.876Z,6.65
2022-11-30T23:41:42.610Z,6.60
2022-11-30T23:44:10.621Z,5.40
2022-11-30T23:46:38.155Z,5.10
2022-11-30T23:49:05.867Z,5.32
2022-11-30T23:51:32.849Z,4.95
2022-11-30T23:53:59.981Z,6.07
2022-11-30T23:56:27.443Z,5.45
2022-11-30T23:58:54.392Z,5.72
